Time;durP1;ratioP1;P1;durP2;ratioP2;P2;SDS_P1;SDS_P2;PMS_P1;PMS_P2;Temp;Humidity;BMP_temperature;BMP_pressure;BME280_temperature;BME280_humidity;BME280_pressure;Samples;Min_cycle;Max_cycle;Signal;HPM_P1;HPM_P2
2021/07/09 00:01:16;0.00;0.00;0.62;0.00;0.00;0.62;5.17;4.20;;;28.30;39.90;;;;;;2278615;60;20354;-60
2021/07/09 00:03:42;0.00;0.00;0.62;0.00;0.00;0.62;4.60;3.93;;;28.20;39.90;;;;;;2278585;61;20425;-62
2021/07/09 00:06:09;0.00;0.00;0.62;0.00;0.00;0.62;4.17;3.80;;;28.20;39.90;;;;;;2279023;60;20347;-63
2021/07/09 00:08:37;0.00;0.00;0.62;0.00;0.00;0.62;6.30;3.43;;;28.20;39.90;;;;;;2279125;60;20394;-62
2021/07/09 00:11:03;0.00;0.00;0.62;0.00;0.00;0.62;3.70;3.40;;;28.10;39.80;;;;;;2278489;60;20700;-63
2021/07/09 00:13:30;0.00;0.00;0.62;0.00;0.00;0.62;4.20;3.40;;;28.10;39.90;;;;;;2278918;60;20641;-64
2021/07/09 00:15:56;0.00;0.00;0.62;0.00;0.00;0.62;6.90;4.17;;;28.10;40.00;;;;;;2278701;60;20347;-64
2021/07/09 00:18:24;0.00;0.00;0.62;0.00;0.00;0.62;5.10;3.83;;;28.00;40.00;;;;;;2278063;60;20362;-64
2021/07/09 00:20:50;0.00;0.00;0.62;0.00;0.00;0.62;4.67;3.60;;;28.00;40.10;;;;;;2278637;60;20355;-64
2021/07/09 00:23:17;0.00;0.00;0.62;0.00;0.00;0.62;3.90;3.60;;;27.90;40.10;;;;;;2278686;60;20386;-64
2021/07/09 00:25:45;0.00;0.00;0.62;0.00;0.00;0.62;3.40;3.10;;;27.90;40.20;;;;;;2278703;60;20354;-64
2021/07/09 00:28:11;0.00;0.00;0.62;0.00;0.00;0.62;3.40;3.10;;;27.90;40.20;;;;;;2278904;60;20358;-64
2021/07/09 00:30:38;0.00;0.00;0.62;0.00;0.00;0.62;7.70;3.97;;;27.80;40.10;;;;;;2278293;60;20399;-65
2021/07/09 00:33:05;0.00;0.00;0.62;0.00;0.00;0.62;3.13;2.37;;;27.80;40.10;;;;;;2278017;61;20374;-64
2021/07/09 00:35:31;0.00;0.00;0.62;0.00;0.00;0.62;5.10;3.57;;;27.80;40.10;;;;;;2278135;61;20392;-65
2021/07/09 00:37:58;0.00;0.00;0.62;0.00;0.00;0.62;5.33;3.17;;;27.80;40.20;;;;;;2278326;61;20347;-64
2021/07/09 00:40:24;0.00;0.00;0.62;0.00;0.00;0.62;6.17;3.30;;;27.70;40.10;;;;;;2278035;61;20398;-64
2021/07/09 00:42:52;0.00;0.00;0.62;0.00;0.00;0.62;5.47;3.73;;;27.70;40.00;;;;;;2278053;60;20371;-64
2021/07/09 00:45:19;0.00;0.00;0.62;0.00;0.00;0.62;7.10;3.33;;;27.70;40.10;;;;;;2278210;61;20386;-64
2021/07/09 00:47:47;0.00;0.00;0.62;0.00;0.00;0.62;5.23;3.47;;;27.70;40.00;;;;;;2278105;61;20696;-64
2021/07/09 00:50:16;0.00;0.00;0.62;0.00;0.00;0.62;5.40;2.90;;;27.70;40.10;;;;;;2278220;61;20344;-65
2021/07/09 00:52:42;0.00;0.00;0.62;0.00;0.00;0.62;4.00;3.37;;;27.70;40.10;;;;;;2278092;61;20423;-65
2021/07/09 00:55:11;0.00;0.00;0.62;0.00;0.00;0.62;4.60;2.90;;;27.70;40.10;;;;;;2278052;61;20401;-64
2021/07/09 00:57:42;0.00;0.00;0.62;0.00;0.00;0.62;8.30;3.57;;;27.70;40.00;;;;;;2278086;61;20596;-64
2021/07/09 01:00:14;0.00;0.00;0.62;0.00;0.00;0.62;5.63;3.40;;;27.60;40.00;;;;;;2278176;61;20398;-64
2021/07/09 01:02:41;0.00;0.00;0.62;0.00;0.00;0.62;5.27;2.90;;;27.60;40.00;;;;;;2277925;60;20633;-64
2021/07/09 01:05:10;0.00;0.00;0.62;0.00;0.00;0.62;4.33;2.87;;;27.60;40.00;;;;;;2278052;61;20372;-64
2021/07/09 01:07:37;0.00;0.00;0.62;0.00;0.00;0.62;3.70;2.53;;;27.60;40.10;;;;;;2278459;61;20715;-63
2021/07/09 01:10:08;0.00;0.00;0.62;0.00;0.00;0.62;4.33;2.97;;;27.50;40.10;;;;;;2277982;61;20367;-64
2021/07/09 01:12:35;0.00;0.00;0.62;0.00;0.00;0.62;6.10;2.70;;;27.60;40.20;;;;;;2277929;60;20446;-64
2021/07/09 01:15:05;0.00;0.00;0.62;0.00;0.00;0.62;6.83;3.03;;;27.50;40.10;;;;;;2278238;61;20434;-65
2021/07/09 01:17:33;0.00;0.00;0.62;0.00;0.00;0.62;2.80;2.50;;;27.50;40.20;;;;;;2277971;61;20343;-64
2021/07/09 01:20:00;0.00;0.00;0.62;0.00;0.00;0.62;3.20;2.90;;;27.50;40.10;;;;;;2278073;61;20360;-64
2021/07/09 01:22:30;0.00;0.00;0.62;0.00;0.00;0.62;14.10;3.37;;;27.60;40.20;;;;;;2278130;60;20727;-64
2021/07/09 01:24:58;0.00;0.00;0.62;0.00;0.00;0.62;3.67;2.87;;;27.60;40.30;;;;;;2277525;61;20420;-64
2021/07/09 01:27:25;0.00;0.00;0.62;0.00;0.00;0.62;3.70;2.53;;;27.60;40.20;;;;;;2277959;61;20360;-64
2021/07/09 01:29:52;0.00;0.00;0.62;0.00;0.00;0.62;4.13;2.63;;;27.60;40.10;;;;;;2278171;61;20711;-64
2021/07/09 01:32:18;0.00;0.00;0.62;0.00;0.00;0.62;3.30;3.00;;;27.60;40.10;;;;;;2277820;61;20370;-62
2021/07/09 01:34:45;0.00;0.00;0.62;0.00;0.00;0.62;4.40;3.40;;;27.60;40.10;;;;;;2277995;60;20354;-63
2021/07/09 01:37:13;0.00;0.00;0.62;0.00;0.00;0.62;5.93;3.57;;;27.60;40.10;;;;;;2278182;61;20355;-64
2021/07/09 01:39:40;0.00;0.00;0.62;0.00;0.00;0.62;3.87;2.80;;;27.60;40.10;;;;;;2277902;61;20557;-64
2021/07/09 01:42:10;0.00;0.00;0.62;0.00;0.00;0.62;2.70;2.40;;;27.60;40.10;;;;;;2277464;60;20348;-64
2021/07/09 01:44:38;0.00;0.00;0.62;0.00;0.00;0.62;3.60;2.93;;;27.60;40.10;;;;;;2278084;61;20662;-64
2021/07/09 01:47:06;0.00;0.00;0.62;0.00;0.00;0.62;3.60;2.57;;;27.60;40.10;;;;;;2277908;61;20380;-64
2021/07/09 01:49:46;0.00;0.00;0.62;0.00;0.00;0.62;4.00;3.23;;;27.60;40.10;;;;;;2277891;60;20356;-64
2021/07/09 01:52:12;0.00;0.00;0.62;0.00;0.00;0.62;4.30;3.00;;;27.50;40.00;;;;;;2277951;61;20822;-65
2021/07/09 01:54:39;0.00;0.00;0.62;0.00;0.00;0.62;4.00;3.40;;;27.50;40.10;;;;;;2277505;61;20373;-64
2021/07/09 01:57:05;0.00;0.00;0.62;0.00;0.00;0.62;5.80;3.07;;;27.50;40.10;;;;;;2277986;61;20399;-64
2021/07/09 01:59:33;0.00;0.00;0.62;0.00;0.00;0.62;4.50;3.87;;;27.50;40.10;;;;;;2277988;60;20389;-64
2021/07/09 02:02:00;0.00;0.00;0.62;0.00;0.00;0.62;7.60;3.17;;;27.50;40.10;;;;;;2277790;61;20503;-64
2021/07/09 02:04:26;0.00;0.00;0.62;0.00;0.00;0.62;6.10;3.80;;;27.40;40.10;;;;;;2277918;61;20387;-64
2021/07/09 02:06:53;0.00;0.00;0.62;0.00;0.00;0.62;3.30;3.00;;;27.40;40.10;;;;;;2278008;61;20351;-64
2021/07/09 02:09:19;0.00;0.00;0.62;0.00;0.00;0.62;9.43;4.23;;;27.40;40.10;;;;;;2277975;61;20355;-63
2021/07/09 02:11:46;0.00;0.00;0.62;0.00;0.00;0.62;5.40;3.50;;;27.40;40.20;;;;;;2277732;61;20355;-61
2021/07/09 02:14:12;0.00;0.00;0.62;0.00;0.00;0.62;5.73;4.00;;;27.30;40.20;;;;;;2277874;61;20374;-64
2021/07/09 02:16:40;0.00;0.00;0.62;0.00;0.00;0.62;5.63;3.33;;;27.30;40.20;;;;;;2277903;61;20344;-64
2021/07/09 02:19:07;0.00;0.00;0.62;0.00;0.00;0.62;8.10;3.97;;;27.20;40.20;;;;;;2277801;61;20355;-63
2021/07/09 02:21:34;0.00;0.00;0.62;0.00;0.00;0.62;3.37;2.43;;;27.20;40.20;;;;;;2277687;61;20362;-63
2021/07/09 02:24:00;0.00;0.00;0.62;0.00;0.00;0.62;4.93;2.70;;;27.20;40.20;;;;;;2277667;61;20452;-63
2021/07/09 02:26:27;0.00;0.00;0.62;0.00;0.00;0.62;6.63;2.93;;;27.20;40.30;;;;;;2277818;61;20348;-63
2021/07/09 02:28:53;0.00;0.00;0.62;0.00;0.00;0.62;3.70;2.70;;;27.20;40.30;;;;;;2277982;61;20356;-61
2021/07/09 02:31:19;0.00;0.00;0.62;0.00;0.00;0.62;4.20;3.00;;;27.20;40.30;;;;;;2277563;60;20476;-62
2021/07/09 02:33:47;0.00;0.00;0.62;0.00;0.00;0.62;5.43;3.90;;;27.20;40.30;;;;;;2277726;60;20493;-61
2021/07/09 02:36:14;0.00;0.00;0.62;0.00;0.00;0.62;6.03;3.50;;;27.20;40.40;;;;;;2277921;61;20401;-62
2021/07/09 02:38:41;0.00;0.00;0.62;0.00;0.00;0.62;6.10;3.40;;;27.20;40.40;;;;;;2277709;61;20358;-62
2021/07/09 02:41:07;0.00;0.00;0.62;0.00;0.00;0.62;6.73;4.40;;;27.20;40.40;;;;;;2277663;61;20567;-62
2021/07/09 02:43:33;0.00;0.00;0.62;0.00;0.00;0.62;5.13;3.20;;;27.20;40.50;;;;;;2277761;60;20386;-61
2021/07/09 02:46:00;0.00;0.00;0.62;0.00;0.00;0.62;3.90;3.30;;;27.10;40.40;;;;;;2277638;60;20351;-62
2021/07/09 02:48:27;0.00;0.00;0.62;0.00;0.00;0.62;12.53;3.97;;;27.10;40.50;;;;;;2277759;61;20496;-62
2021/07/09 02:50:54;0.00;0.00;0.62;0.00;0.00;0.62;13.63;4.00;;;27.10;40.60;;;;;;2277890;61;20483;-62
2021/07/09 02:53:21;0.00;0.00;0.62;0.00;0.00;0.62;5.43;3.43;;;27.10;40.50;;;;;;2277554;60;20586;-63
2021/07/09 02:55:47;0.00;0.00;0.62;0.00;0.00;0.62;5.13;3.07;;;27.10;40.50;;;;;;2277586;61;20347;-63
2021/07/09 02:58:14;0.00;0.00;0.62;0.00;0.00;0.62;3.70;3.30;;;27.10;40.60;;;;;;2277422;61;20358;-62
2021/07/09 03:00:40;0.00;0.00;0.62;0.00;0.00;0.62;4.10;3.50;;;27.00;40.50;;;;;;2277578;61;20817;-62
2021/07/09 03:03:07;0.00;0.00;0.62;0.00;0.00;0.62;4.30;3.50;;;27.00;40.60;;;;;;2277625;61;20780;-63
2021/07/09 03:05:34;0.00;0.00;0.62;0.00;0.00;0.62;4.77;3.57;;;27.10;40.60;;;;;;2277760;60;20379;-63
2021/07/09 03:08:03;0.00;0.00;0.62;0.00;0.00;0.62;3.53;3.23;;;27.10;41.30;;;;;;2277617;61;20351;-63
2021/07/09 03:10:30;0.00;0.00;0.62;0.00;0.00;0.62;5.80;3.73;;;27.00;40.50;;;;;;2277564;61;20381;-63
2021/07/09 03:12:56;0.00;0.00;0.62;0.00;0.00;0.62;6.10;3.90;;;27.10;40.60;;;;;;2277753;61;20367;-63
2021/07/09 03:15:23;0.00;0.00;0.62;0.00;0.00;0.62;5.63;4.07;;;27.10;40.60;;;;;;2277600;61;20572;-63
2021/07/09 03:17:50;0.00;0.00;0.62;0.00;0.00;0.62;4.53;3.87;;;27.10;40.60;;;;;;2277628;61;20351;-63
2021/07/09 03:20:16;0.00;0.00;0.62;0.00;0.00;0.62;4.50;3.37;;;27.10;40.50;;;;;;2277769;61;20363;-63
2021/07/09 03:22:44;0.00;0.00;0.62;0.00;0.00;0.62;4.33;3.50;;;27.10;40.50;;;;;;2277432;61;20375;-63
2021/07/09 03:25:13;0.00;0.00;0.62;0.00;0.00;0.62;7.70;3.67;;;27.10;40.50;;;;;;2277594;61;20722;-63
2021/07/09 03:27:40;0.00;0.00;0.62;0.00;0.00;0.62;5.40;4.00;;;27.10;40.50;;;;;;2277709;61;20362;-63
2021/07/09 03:30:09;0.00;0.00;0.62;0.00;0.00;0.62;6.33;4.67;;;27.10;40.50;;;;;;2277576;61;20554;-63
2021/07/09 03:32:36;0.00;0.00;0.62;0.00;0.00;0.62;7.70;5.00;;;27.10;40.50;;;;;;2277425;61;20485;-63
2021/07/09 03:35:04;0.00;0.00;0.62;0.00;0.00;0.62;5.93;5.43;;;27.10;40.50;;;;;;2277808;61;20527;-63
2021/07/09 03:37:30;0.00;0.00;0.62;0.00;0.00;0.62;4.77;4.23;;;27.10;40.50;;;;;;2277471;61;20430;-63
2021/07/09 03:39:57;0.00;0.00;0.62;0.00;0.00;0.62;7.67;5.30;;;27.10;40.40;;;;;;2277118;61;20359;-63
2021/07/09 03:42:25;0.00;0.00;0.62;0.00;0.00;0.62;5.33;4.83;;;27.10;40.50;;;;;;2277668;61;20391;-63
2021/07/09 03:44:51;0.00;0.00;0.62;0.00;0.00;0.62;6.57;5.17;;;27.10;40.60;;;;;;2277525;61;20768;-62
2021/07/09 03:47:18;0.00;0.00;0.62;0.00;0.00;0.62;6.93;5.00;;;27.10;40.60;;;;;;2277525;61;20437;-64
2021/07/09 03:49:44;0.00;0.00;0.62;0.00;0.00;0.62;5.57;4.90;;;27.10;40.50;;;;;;2276829;61;20405;-63
2021/07/09 03:52:11;0.00;0.00;0.62;0.00;0.00;0.62;5.83;5.23;;;27.10;40.50;;;;;;2276587;61;20359;-63
2021/07/09 03:54:37;0.00;0.00;0.62;0.00;0.00;0.62;5.83;4.83;;;27.10;40.50;;;;;;2276363;61;20428;-63
2021/07/09 03:57:05;0.00;0.00;0.62;0.00;0.00;0.62;5.33;4.83;;;27.10;40.50;;;;;;2277566;61;20352;-63
2021/07/09 03:59:33;0.00;0.00;0.62;0.00;0.00;0.62;5.07;4.67;;;27.10;40.70;;;;;;2276764;61;20351;-63
2021/07/09 04:02:00;0.00;0.00;0.62;0.00;0.00;0.62;5.60;5.10;;;27.10;40.60;;;;;;2276922;61;20368;-63
2021/07/09 04:04:27;0.00;0.00;0.62;0.00;0.00;0.62;9.77;6.73;;;27.10;40.60;;;;;;2277422;60;20379;-63
2021/07/09 04:06:53;0.00;0.00;0.62;0.00;0.00;0.62;5.50;4.90;;;27.10;40.90;;;;;;2278220;60;20352;-63
2021/07/09 04:09:20;0.00;0.00;0.62;0.00;0.00;0.62;7.82;6.30;;;27.10;40.80;;;;;;2277805;60;20688;-63
2021/07/09 04:11:46;0.00;0.00;0.62;0.00;0.00;0.62;5.90;5.43;;;27.00;41.20;;;;;;2277770;61;20236;-63
2021/07/09 04:14:14;0.00;0.00;0.62;0.00;0.00;0.62;6.67;6.07;;;27.10;41.00;;;;;;2277798;61;20367;-63
2021/07/09 04:16:41;0.00;0.00;0.62;0.00;0.00;0.62;8.00;5.27;;;27.10;41.10;;;;;;2278216;61;20404;-62
2021/07/09 04:19:08;0.00;0.00;0.62;0.00;0.00;0.62;6.70;6.10;;;27.10;41.20;;;;;;2278290;61;20571;-63
2021/07/09 04:21:34;0.00;0.00;0.62;0.00;0.00;0.62;6.97;6.27;;;27.00;41.20;;;;;;2278145;61;20351;-61
2021/07/09 04:24:01;0.00;0.00;0.62;0.00;0.00;0.62;8.07;7.40;;;27.00;41.20;;;;;;2278058;61;20378;-63
2021/07/09 04:26:27;0.00;0.00;0.62;0.00;0.00;0.62;8.50;7.77;;;27.00;41.20;;;;;;2278280;61;20358;-63
2021/07/09 04:28:54;0.00;0.00;0.62;0.00;0.00;0.62;7.93;6.53;;;27.00;41.20;;;;;;2278390;60;20677;-63
2021/07/09 04:31:20;0.00;0.00;0.62;0.00;0.00;0.62;8.97;8.17;;;26.90;41.20;;;;;;2277954;61;20584;-63
2021/07/09 04:33:50;0.00;0.00;0.62;0.00;0.00;0.62;11.73;8.43;;;26.90;41.20;;;;;;2278260;61;20367;-63
2021/07/09 04:36:17;0.00;0.00;0.62;0.00;0.00;0.62;8.77;7.93;;;26.90;41.20;;;;;;2278342;61;20359;-63
2021/07/09 04:38:43;0.00;0.00;0.62;0.00;0.00;0.62;10.03;9.03;;;26.90;41.20;;;;;;2278019;61;20404;-61
2021/07/09 04:41:10;0.00;0.00;0.62;0.00;0.00;0.62;9.77;8.77;;;26.90;41.30;;;;;;2278131;61;20376;-63
2021/07/09 04:43:38;0.00;0.00;0.62;0.00;0.00;0.62;8.17;7.40;;;26.90;41.50;;;;;;2278187;61;20371;-62
2021/07/09 04:46:05;0.00;0.00;0.62;0.00;0.00;0.62;8.80;7.70;;;26.80;41.30;;;;;;2277821;61;20379;-64
2021/07/09 04:48:32;0.00;0.00;0.62;0.00;0.00;0.62;7.87;6.57;;;26.80;41.40;;;;;;2278236;61;20351;-66
2021/07/09 04:51:03;0.00;0.00;0.62;0.00;0.00;0.62;7.07;6.47;;;26.80;41.30;;;;;;2278137;61;20569;-66
2021/07/09 04:53:30;0.00;0.00;0.62;0.00;0.00;0.62;6.90;6.30;;;26.80;41.40;;;;;;2277611;61;20393;-66
2021/07/09 04:55:57;0.00;0.00;0.62;0.00;0.00;0.62;7.30;5.70;;;26.80;41.40;;;;;;2278242;60;20339;-63
2021/07/09 04:58:23;0.00;0.00;0.62;0.00;0.00;0.62;6.77;6.17;;;26.80;41.50;;;;;;2278234;61;20355;-64
2021/07/09 05:00:50;0.00;0.00;0.62;0.00;0.00;0.62;6.93;6.10;;;26.80;41.50;;;;;;2277817;61;20349;-65
2021/07/09 05:03:16;0.00;0.00;0.62;0.00;0.00;0.62;6.17;5.63;;;26.80;41.50;;;;;;2278322;60;20394;-63
2021/07/09 05:05:43;0.00;0.00;0.62;0.00;0.00;0.62;6.10;5.60;;;26.80;41.40;;;;;;2279795;60;20729;-64
2021/07/09 05:08:11;0.00;0.00;0.62;0.00;0.00;0.62;6.20;5.60;;;26.90;41.50;;;;;;2279280;60;20377;-64
2021/07/09 05:10:38;0.00;0.00;0.62;0.00;0.00;0.62;6.27;5.00;;;26.90;41.50;;;;;;2278614;60;20869;-62
2021/07/09 05:13:05;0.00;0.00;0.62;0.00;0.00;0.62;5.20;4.80;;;26.90;41.40;;;;;;2282121;60;20374;-67
2021/07/09 05:15:32;0.00;0.00;0.62;0.00;0.00;0.62;9.50;6.03;;;27.00;41.30;;;;;;2280248;60;20688;-65
2021/07/09 05:17:58;0.00;0.00;0.62;0.00;0.00;0.62;5.73;5.20;;;27.00;41.20;;;;;;2278138;61;20447;-64
2021/07/09 05:20:25;0.00;0.00;0.62;0.00;0.00;0.62;6.50;5.87;;;27.00;41.20;;;;;;2278135;61;20442;-63
2021/07/09 05:22:51;0.00;0.00;0.62;0.00;0.00;0.62;6.73;4.83;;;27.00;41.30;;;;;;2277580;61;20367;-64
2021/07/09 05:25:20;0.00;0.00;0.62;0.00;0.00;0.62;5.80;4.80;;;27.00;41.20;;;;;;2281788;60;20414;-63
2021/07/09 05:27:46;0.00;0.00;0.62;0.00;0.00;0.62;5.33;4.83;;;27.00;41.20;;;;;;2282115;60;20437;-62
2021/07/09 05:30:16;0.00;0.00;0.62;0.00;0.00;0.62;8.23;5.43;;;27.10;41.30;;;;;;2281305;60;20369;-64
2021/07/09 05:32:43;0.00;0.00;0.62;0.00;0.00;0.62;5.93;5.33;;;27.10;41.30;;;;;;2281995;60;20696;-63
2021/07/09 05:35:11;0.00;0.00;0.62;0.00;0.00;0.62;7.90;7.10;;;27.10;41.30;;;;;;2282151;60;20350;-63
2021/07/09 05:37:37;0.00;0.00;0.62;0.00;0.00;0.62;6.50;5.87;;;27.10;41.30;;;;;;2281719;60;20527;-63
2021/07/09 05:40:06;0.00;0.00;0.62;0.00;0.00;0.62;7.13;6.27;;;27.10;41.30;;;;;;2282152;60;20347;-62
2021/07/09 05:42:34;0.00;0.00;0.62;0.00;0.00;0.62;6.10;5.60;;;27.10;41.30;;;;;;2277880;61;20394;-61
2021/07/09 05:45:01;0.00;0.00;0.62;0.00;0.00;0.62;6.77;6.17;;;27.20;41.40;;;;;;2277540;61;20387;-62
2021/07/09 05:47:28;0.00;0.00;0.62;0.00;0.00;0.62;5.70;5.20;;;27.20;41.40;;;;;;2277976;61;20351;-62
2021/07/09 05:49:55;0.00;0.00;0.62;0.00;0.00;0.62;6.10;5.50;;;27.20;41.40;;;;;;2278038;61;20700;-62
2021/07/09 05:52:21;0.00;0.00;0.62;0.00;0.00;0.62;8.50;5.50;;;27.20;41.40;;;;;;2277381;61;20610;-63
2021/07/09 05:54:48;0.00;0.00;0.62;0.00;0.00;0.62;5.50;5.00;;;27.20;42.10;;;;;;2277908;61;20358;-63
2021/07/09 05:57:14;0.00;0.00;0.62;0.00;0.00;0.62;6.57;5.93;;;27.20;41.40;;;;;;2277941;61;20359;-64
2021/07/09 05:59:42;0.00;0.00;0.62;0.00;0.00;0.62;5.77;5.23;;;27.20;41.40;;;;;;2277469;61;20355;-64
2021/07/09 06:02:09;0.00;0.00;0.62;0.00;0.00;0.62;5.87;5.30;;;27.20;41.40;;;;;;2277722;61;20401;-66
2021/07/09 06:04:35;0.00;0.00;0.62;0.00;0.00;0.62;6.40;5.80;;;27.20;41.40;;;;;;2277883;61;20386;-64
2021/07/09 06:07:03;0.00;0.00;0.62;0.00;0.00;0.62;6.90;6.20;;;27.20;41.40;;;;;;2277380;61;20408;-65
2021/07/09 06:09:32;0.00;0.00;0.62;0.00;0.00;0.62;7.80;5.50;;;27.20;41.40;;;;;;2277730;61;20653;-64
2021/07/09 06:11:59;0.00;0.00;0.62;0.00;0.00;0.62;6.80;6.20;;;27.20;41.40;;;;;;2277680;61;20355;-65
2021/07/09 06:14:25;0.00;0.00;0.62;0.00;0.00;0.62;6.30;5.70;;;27.20;41.40;;;;;;2277440;60;20343;-64
2021/07/09 06:16:53;0.00;0.00;0.62;0.00;0.00;0.62;6.93;6.30;;;27.20;41.30;;;;;;2281937;60;20355;-64
2021/07/09 06:19:20;0.00;0.00;0.62;0.00;0.00;0.62;8.83;7.77;;;27.30;41.30;;;;;;2281909;60;20717;-65
2021/07/09 06:21:46;0.00;0.00;0.62;0.00;0.00;0.62;7.03;6.33;;;27.30;41.30;;;;;;2281532;60;20411;-67
2021/07/09 06:24:13;0.00;0.00;0.62;0.00;0.00;0.62;10.27;6.50;;;27.30;41.20;;;;;;2281832;60;20379;-63
2021/07/09 06:26:41;0.00;0.00;0.62;0.00;0.00;0.62;7.17;6.47;;;27.30;41.10;;;;;;2281827;60;20707;-63
2021/07/09 06:29:07;0.00;0.00;0.62;0.00;0.00;0.62;6.73;6.03;;;27.30;41.10;;;;;;2281406;60;20363;-61
2021/07/09 06:31:34;0.00;0.00;0.62;0.00;0.00;0.62;6.90;6.20;;;27.30;41.10;;;;;;2281765;60;20347;-66
2021/07/09 06:34:02;0.00;0.00;0.62;0.00;0.00;0.62;7.90;7.20;;;27.30;41.10;;;;;;2281860;60;20446;-61
2021/07/09 06:36:29;0.00;0.00;0.62;0.00;0.00;0.62;8.37;7.57;;;27.30;41.10;;;;;;2281401;60;20370;-61
2021/07/09 06:38:55;0.00;0.00;0.62;0.00;0.00;0.62;7.37;6.50;;;27.30;41.00;;;;;;2281924;60;20351;-62
2021/07/09 06:41:22;0.00;0.00;0.62;0.00;0.00;0.62;8.37;7.57;;;27.30;41.00;;;;;;2281712;60;20351;-63
2021/07/09 06:43:48;0.00;0.00;0.62;0.00;0.00;0.62;8.07;7.27;;;27.30;41.00;;;;;;2281341;60;20499;-66
2021/07/09 06:46:15;0.00;0.00;0.62;0.00;0.00;0.62;7.73;7.10;;;27.30;41.00;;;;;;2281892;60;20390;-63
2021/07/09 06:48:41;0.00;0.00;0.62;0.00;0.00;0.62;8.77;6.10;;;27.30;41.00;;;;;;2281867;60;20350;-63
2021/07/09 06:51:10;0.00;0.00;0.62;0.00;0.00;0.62;8.07;7.33;;;27.30;40.90;;;;;;2281363;60;20670;-65
2021/07/09 06:53:36;0.00;0.00;0.62;0.00;0.00;0.62;8.90;7.13;;;27.30;40.90;;;;;;2281826;60;20384;-64
2021/07/09 06:56:04;0.00;0.00;0.62;0.00;0.00;0.62;6.50;5.90;;;27.30;40.90;;;;;;2281823;60;20430;-65
2021/07/09 06:58:31;0.00;0.00;0.62;0.00;0.00;0.62;10.40;6.80;;;27.30;40.90;;;;;;2281404;60;21006;-65
2021/07/09 07:00:57;0.00;0.00;0.62;0.00;0.00;0.62;7.40;6.70;;;27.30;40.80;;;;;;2282012;60;20396;-66
2021/07/09 07:03:24;0.00;0.00;0.62;0.00;0.00;0.62;9.93;6.70;;;27.30;40.80;;;;;;2281670;60;20578;-65
2021/07/09 07:05:50;0.00;0.00;0.62;0.00;0.00;0.62;6.90;6.20;;;27.30;40.80;;;;;;2281266;60;20406;-63
2021/07/09 07:08:23;0.00;0.00;0.62;0.00;0.00;0.62;7.57;6.77;;;27.30;40.90;;;;;;2281935;60;20354;-62
2021/07/09 07:10:51;0.00;0.00;0.62;0.00;0.00;0.62;7.00;6.40;;;27.30;40.80;;;;;;2281777;60;20699;-63
2021/07/09 07:13:18;0.00;0.00;0.62;0.00;0.00;0.62;6.87;5.73;;;27.30;40.80;;;;;;2281223;60;20370;-66
2021/07/09 07:15:45;0.00;0.00;0.62;0.00;0.00;0.62;6.90;6.20;;;27.30;40.90;;;;;;2279318;60;20442;-62
2021/07/09 07:18:12;0.00;0.00;0.62;0.00;0.00;0.62;7.00;6.30;;;27.30;40.80;;;;;;2277709;61;20351;-63
2021/07/09 07:20:42;0.00;0.00;0.62;0.00;0.00;0.62;7.33;6.57;;;27.30;40.80;;;;;;2277206;61;20355;-63
2021/07/09 07:23:09;0.00;0.00;0.62;0.00;0.00;0.62;6.40;5.80;;;27.30;40.80;;;;;;2277534;61;20375;-64
2021/07/09 07:25:38;0.00;0.00;0.62;0.00;0.00;0.62;6.90;6.30;;;27.30;40.80;;;;;;2277147;61;20383;-63
2021/07/09 07:28:06;0.00;0.00;0.62;0.00;0.00;0.62;6.43;5.90;;;27.30;40.80;;;;;;2277316;61;20359;-65
2021/07/09 07:30:33;0.00;0.00;0.62;0.00;0.00;0.62;5.77;5.27;;;27.30;40.80;;;;;;2277710;61;20772;-63
2021/07/09 07:33:01;0.00;0.00;0.62;0.00;0.00;0.62;5.73;5.17;;;27.30;40.70;;;;;;2277489;61;20496;-62
2021/07/09 07:35:30;0.00;0.00;0.62;0.00;0.00;0.62;6.87;6.27;;;27.30;40.80;;;;;;2277246;61;20438;-63
2021/07/09 07:37:57;0.00;0.00;0.62;0.00;0.00;0.62;6.13;5.53;;;27.30;40.80;;;;;;2277688;61;20386;-64
2021/07/09 07:40:24;0.00;0.00;0.62;0.00;0.00;0.62;6.40;5.80;;;27.30;40.80;;;;;;2278327;61;20394;-65
2021/07/09 07:42:52;0.00;0.00;0.62;0.00;0.00;0.62;6.00;5.50;;;27.30;40.80;;;;;;2277843;61;20367;-65
2021/07/09 07:45:18;0.00;0.00;0.62;0.00;0.00;0.62;6.00;5.40;;;27.30;40.80;;;;;;2278280;61;20390;-63
2021/07/09 07:47:45;0.00;0.00;0.62;0.00;0.00;0.62;6.57;6.07;;;27.30;40.80;;;;;;2278412;61;20392;-65
2021/07/09 07:50:14;0.00;0.00;0.62;0.00;0.00;0.62;6.43;5.87;;;27.30;40.70;;;;;;2277979;61;20390;-63
2021/07/09 07:52:41;0.00;0.00;0.62;0.00;0.00;0.62;6.03;4.60;;;27.30;40.80;;;;;;2278161;61;20375;-63
2021/07/09 07:55:08;0.00;0.00;0.62;0.00;0.00;0.62;6.33;5.80;;;27.30;40.80;;;;;;2278338;61;20347;-64
2021/07/09 07:57:35;0.00;0.00;0.62;0.00;0.00;0.62;5.13;4.73;;;27.30;40.80;;;;;;2277919;61;20573;-64
2021/07/09 08:00:05;0.00;0.00;0.62;0.00;0.00;0.62;6.50;5.90;;;27.30;40.70;;;;;;2278240;61;20358;-61
2021/07/09 08:02:39;0.00;0.00;0.62;0.00;0.00;0.62;8.83;5.33;;;27.30;40.80;;;;;;2278279;61;20703;-62
2021/07/09 08:05:07;0.00;0.00;0.62;0.00;0.00;0.62;5.97;5.37;;;27.30;40.80;;;;;;2277919;61;20386;-65
2021/07/09 08:07:34;0.00;0.00;0.62;0.00;0.00;0.62;7.10;6.40;;;27.30;41.00;;;;;;2278214;61;20562;-62
2021/07/09 08:10:01;0.00;0.00;0.62;0.00;0.00;0.62;6.33;5.73;;;27.30;41.20;;;;;;2278329;61;20710;-67
2021/07/09 08:12:28;0.00;0.00;0.62;0.00;0.00;0.62;7.13;6.43;;;27.30;41.50;;;;;;2277689;61;20382;-65
2021/07/09 08:14:54;0.00;0.00;0.62;0.00;0.00;0.62;7.53;6.83;;;27.30;41.50;;;;;;2279146;60;20453;-64
2021/07/09 08:17:22;0.00;0.00;0.62;0.00;0.00;0.62;5.90;5.30;;;27.30;41.50;;;;;;2282372;60;20350;-67
2021/07/09 08:19:49;0.00;0.00;0.62;0.00;0.00;0.62;7.00;6.40;;;27.30;41.50;;;;;;2281915;60;20561;-66
2021/07/09 08:22:15;0.00;0.00;0.62;0.00;0.00;0.62;7.77;6.97;;;27.30;41.50;;;;;;2282206;60;20492;-68
2021/07/09 08:24:42;0.00;0.00;0.62;0.00;0.00;0.62;7.63;6.83;;;27.30;41.50;;;;;;2282310;60;20381;-67
2021/07/09 08:27:09;0.00;0.00;0.62;0.00;0.00;0.62;8.07;6.57;;;27.30;41.50;;;;;;2281781;60;20426;-66
2021/07/09 08:29:35;0.00;0.00;0.62;0.00;0.00;0.62;6.20;5.70;;;27.30;41.50;;;;;;2282422;60;20749;-62
2021/07/09 08:32:02;0.00;0.00;0.62;0.00;0.00;0.62;8.30;7.53;;;27.30;41.50;;;;;;2282187;60;20683;-66
2021/07/09 08:34:30;0.00;0.00;0.62;0.00;0.00;0.62;6.97;6.43;;;27.30;41.50;;;;;;2281970;60;20669;-65
2021/07/09 08:36:57;0.00;0.00;0.62;0.00;0.00;0.62;7.77;7.10;;;27.30;41.50;;;;;;2282341;60;20346;-63
2021/07/09 08:39:23;0.00;0.00;0.62;0.00;0.00;0.62;8.70;6.90;;;27.30;41.50;;;;;;2282522;60;20361;-66
2021/07/09 08:41:55;0.00;0.00;0.62;0.00;0.00;0.62;14.03;6.43;;;27.30;41.50;;;;;;2281612;60;20350;-68
2021/07/09 08:44:22;0.00;0.00;0.62;0.00;0.00;0.62;9.43;8.40;;;27.30;41.50;;;;;;2282254;60;20762;-68
2021/07/09 08:46:50;0.00;0.00;0.62;0.00;0.00;0.62;6.73;6.13;;;27.30;41.50;;;;;;2282235;60;20351;-69
2021/07/09 08:49:19;0.00;0.00;0.62;0.00;0.00;0.62;7.63;7.03;;;27.40;41.50;;;;;;2281780;60;20737;-66
2021/07/09 08:51:48;0.00;0.00;0.62;0.00;0.00;0.62;7.87;7.17;;;27.30;41.50;;;;;;2281937;60;20369;-66
2021/07/09 08:54:18;0.00;0.00;0.62;0.00;0.00;0.62;7.43;6.70;;;27.30;41.50;;;;;;2282183;60;20374;-62
2021/07/09 08:56:46;0.00;0.00;0.62;0.00;0.00;0.62;8.40;7.70;;;27.30;41.50;;;;;;2281293;60;20501;-65
2021/07/09 08:59:14;0.00;0.00;0.62;0.00;0.00;0.62;7.53;6.90;;;27.30;41.50;;;;;;2282182;60;20705;-67
2021/07/09 09:01:49;0.00;0.00;0.62;0.00;0.00;0.62;7.07;6.37;;;27.30;41.50;;;;;;2282004;60;20393;-66
2021/07/09 09:04:24;0.00;0.00;0.62;0.00;0.00;0.62;8.10;7.00;;;27.30;41.50;;;;;;2281675;60;20370;-68
2021/07/09 09:07:02;0.00;0.00;0.62;0.00;0.00;0.62;9.50;7.97;;;27.30;41.50;;;;;;2282167;60;20358;-64
2021/07/09 09:09:29;0.00;0.00;0.62;0.00;0.00;0.62;9.80;8.20;;;27.30;41.50;;;;;;2282185;60;20366;-68
2021/07/09 09:12:08;0.00;0.00;0.62;0.00;0.00;0.62;8.10;7.33;;;27.30;41.50;;;;;;2281602;60;20350;-66
2021/07/09 09:14:37;0.00;0.00;0.62;0.00;0.00;0.62;9.20;7.40;;;27.40;41.60;;;;;;2281831;60;20357;-65
2021/07/09 09:17:26;0.00;0.00;0.62;0.00;0.00;0.62;8.20;7.57;;;27.30;41.50;;;;;;2277999;61;20347;-66
2021/07/09 09:20:12;0.00;0.00;0.62;0.00;0.00;0.62;9.40;8.60;;;27.40;42.20;;;;;;2277640;61;20404;-67
2021/07/09 09:22:59;0.00;0.00;0.62;0.00;0.00;0.62;10.30;9.20;;;27.30;41.50;;;;;;2277922;61;20371;-68
2021/07/09 09:25:29;0.00;0.00;0.62;0.00;0.00;0.62;9.77;8.77;;;27.30;41.50;;;;;;2277699;61;20568;-62
2021/07/09 09:28:06;0.00;0.00;0.62;0.00;0.00;0.62;9.00;8.27;;;27.30;41.50;;;;;;2277922;61;20374;-67
2021/07/09 09:30:35;0.00;0.00;0.62;0.00;0.00;0.62;8.80;7.80;;;27.30;41.50;;;;;;2278156;61;20360;-67
2021/07/09 09:33:04;0.00;0.00;0.62;0.00;0.00;0.62;8.43;7.73;;;27.30;41.50;;;;;;2277202;61;20371;-67
2021/07/09 09:35:41;0.00;0.00;0.62;0.00;0.00;0.62;9.33;8.23;;;27.30;41.50;;;;;;2277826;61;20343;-67
2021/07/09 09:38:11;0.00;0.00;0.62;0.00;0.00;0.62;9.23;7.70;;;27.30;41.60;;;;;;2278020;61;20350;-67
2021/07/09 09:40:42;0.00;0.00;0.62;0.00;0.00;0.62;8.00;7.40;;;27.30;41.60;;;;;;2277778;61;20363;-65
2021/07/09 09:43:11;0.00;0.00;0.62;0.00;0.00;0.62;8.17;7.47;;;27.30;41.70;;;;;;2277337;61;20367;-66